Time;durP1;ratioP1;P1;durP2;ratioP2;P2;SDS_P1;SDS_P2;PMS_P1;PMS_P2;Temp;Humidity;BMP_temperature;BMP_pressure;BME280_temperature;BME280_humidity;BME280_pressure;Samples;Min_cycle;Max_cycle;Signal;HPM_P1;HPM_P2
2022/08/04 00:01:35;;;;;;;6.03;4.15;;;;;;;22.49;100.00;101144.72;5237077;28;20394;-65
2022/08/04 00:04:38;;;;;;;4.30;4.10;;;;;;;22.39;100.00;101147.81;5237437;28;20040;-65
2022/08/04 00:07:29;;;;;;;7.90;4.38;;;;;;;22.29;100.00;101146.22;5247743;28;20496;-64
2022/08/04 00:10:05;;;;;;;6.38;4.53;;;;;;;22.02;100.00;101122.66;5248102;28;20107;-65
2022/08/04 00:12:41;;;;;;;5.00;4.55;;;;;;;22.12;100.00;101143.53;5247613;28;20034;-65
2022/08/04 00:15:14;;;;;;;5.68;3.92;;;;;;;22.04;100.00;101138.84;5246654;28;20458;-65
2022/08/04 00:17:58;;;;;;;17.80;4.70;;;;;;;21.90;100.00;101136.25;5247097;28;20372;-65
2022/08/04 00:20:31;;;;;;;9.43;4.25;;;;;;;21.80;100.00;101134.66;5246613;28;20032;-65
2022/08/04 00:23:04;;;;;;;9.05;4.00;;;;;;;21.71;100.00;101125.59;5212310;28;20115;-65
2022/08/04 00:25:40;;;;;;;5.72;4.18;;;;;;;21.73;100.00;101131.56;5246388;28;20025;-65
2022/08/04 00:28:11;;;;;;;5.95;4.85;;;;;;;21.68;100.00;101136.41;5246608;28;20020;-65
2022/08/04 00:30:42;;;;;;;8.23;5.43;;;;;;;21.61;100.00;101131.44;5228830;28;20067;-65
2022/08/04 00:33:17;;;;;;;8.55;5.13;;;;;;;21.52;100.00;101128.66;5246513;28;20016;-68
2022/08/04 00:35:49;;;;;;;7.50;5.22;;;;;;;21.51;100.00;101132.56;5245808;28;20473;-67
2022/08/04 00:38:20;;;;;;;6.07;4.75;;;;;;;21.50;100.00;101130.94;5246439;28;20400;-67
2022/08/04 00:41:05;;;;;;;5.75;4.38;;;;;;;21.48;100.00;101133.19;5246402;28;20043;-67
2022/08/04 00:44:07;;;;;;;4.88;4.57;;;;;;;21.39;100.00;101121.38;5245916;28;20030;-65
2022/08/04 00:46:45;;;;;;;5.40;3.95;;;;;;;21.33;100.00;101111.69;5246213;28;20028;-66
2022/08/04 00:49:28;;;;;;;6.65;3.80;;;;;;;21.33;100.00;101116.38;5246002;28;20024;-67
2022/08/04 00:52:17;;;;;;;4.53;4.22;;;;;;;21.27;100.00;101114.91;5245612;28;20028;-67
2022/08/04 00:55:20;;;;;;;6.00;4.67;;;;;;;21.22;100.00;101115.88;5245918;28;20391;-68
2022/08/04 00:58:00;;;;;;;5.93;4.75;;;;;;;21.19;100.00;101113.75;5245865;28;20443;-65
2022/08/04 01:01:01;;;;;;;4.75;4.35;;;;;;;21.12;100.00;101111.47;5245841;28;20033;-67
2022/08/04 01:03:49;;;;;;;6.95;4.82;;;;;;;21.09;100.00;101112.09;5237516;28;20040;-68
2022/08/04 01:06:57;;;;;;;8.90;4.82;;;;;;;21.05;100.00;101113.91;5228315;28;20037;-68
2022/08/04 01:09:50;;;;;;;6.00;5.50;;;;;;;21.07;100.00;101119.88;5245971;28;20530;-67
2022/08/04 01:12:35;;;;;;;9.48;4.78;;;;;;;21.11;100.00;101117.28;5227932;28;20021;-67
2022/08/04 01:15:17;;;;;;;5.40;5.00;;;;;;;21.10;100.00;101119.22;5245340;28;20118;-68
2022/08/04 01:18:07;;;;;;;5.38;4.97;;;;;;;20.98;100.00;101108.06;5227831;28;20029;-68
2022/08/04 01:20:56;;;;;;;7.03;6.35;;;;;;;20.99;100.00;101117.91;5245940;28;20475;-68
2022/08/04 01:23:47;;;;;;;6.47;6.18;;;;;;;20.95;100.00;101113.38;5245464;28;20024;-69
2022/08/04 01:26:50;;;;;;;6.78;6.22;;;;;;;20.86;100.00;101111.41;5245602;28;20432;-68
2022/08/04 01:29:25;;;;;;;5.65;5.25;;;;;;;20.83;100.00;101113.97;5245684;28;20024;-66
2022/08/04 01:32:18;;;;;;;11.43;7.38;;;;;;;20.78;100.00;101105.91;5246306;28;20122;-66
2022/08/04 01:34:58;;;;;;;5.47;5.07;;;;;;;20.68;100.00;101103.44;5226911;28;20028;-67
2022/08/04 01:37:31;;;;;;;13.35;6.55;;;;;;;20.66;100.00;101106.50;5245354;28;20422;-68
2022/08/04 01:40:05;;;;;;;5.47;4.93;;;;;;;20.66;100.00;101097.47;5245250;28;20100;-68
2022/08/04 01:42:36;;;;;;;5.47;5.18;;;;;;;20.61;100.00;101092.13;5245692;28;20037;-68
2022/08/04 01:45:09;;;;;;;5.15;4.85;;;;;;;20.62;100.00;101094.56;5227097;28;20102;-68
2022/08/04 01:47:52;;;;;;;6.50;6.10;;;;;;;20.62;100.00;101097.28;5245206;28;20078;-69
2022/08/04 01:50:25;;;;;;;7.78;5.18;;;;;;;20.59;100.00;101105.34;5245534;28;20024;-69
2022/08/04 01:52:56;;;;;;;5.97;5.50;;;;;;;20.60;100.00;101102.28;5245675;28;20078;-69
2022/08/04 01:55:28;;;;;;;7.70;5.80;;;;;;;20.58;100.00;101109.22;5244727;28;20415;-69
2022/08/04 01:57:59;;;;;;;7.40;6.63;;;;;;;20.50;100.00;101105.34;5245612;28;20021;-69
2022/08/04 02:00:30;;;;;;;5.43;4.93;;;;;;;20.47;100.00;101103.22;5245520;28;20032;-69
2022/08/04 02:03:00;;;;;;;5.82;5.43;;;;;;;20.44;100.00;101110.16;5285185;22;20043;-79
2022/08/04 02:05:31;;;;;;;7.32;5.35;;;;;;;20.44;100.00;101117.56;5258119;28;20024;-78
2022/08/04 02:08:20;;;;;;;6.80;5.25;;;;;;;20.37;100.00;101133.63;5259803;28;20032;-80
2022/08/04 02:11:06;;;;;;;;;;;;;;;20.31;100.00;101115.69;5259708;28;20024;-78
2022/08/04 02:14:07;;;;;;;11.93;5.82;;;;;;;20.23;100.00;101109.03;5240658;28;19959;-78
2022/08/04 02:16:49;;;;;;;6.80;6.22;;;;;;;19.97;100.00;101075.97;5261817;28;20036;-78
2022/08/04 02:19:38;;;;;;;6.30;5.30;;;;;;;20.04;100.00;101092.00;5260684;28;20020;-79
2022/08/04 02:22:16;;;;;;;5.55;5.15;;;;;;;20.03;100.00;101093.91;5259299;28;20032;-80
2022/08/04 02:24:52;;;;;;;6.30;5.68;;;;;;;20.06;100.00;101107.00;5240933;28;20028;-79
2022/08/04 02:27:31;;;;;;;8.00;4.97;;;;;;;19.96;100.00;101090.00;5258975;28;20028;-79
2022/08/04 02:30:04;;;;;;;5.80;5.47;;;;;;;19.96;100.00;101092.75;5240911;28;20645;-79
2022/08/04 02:32:38;;;;;;;7.93;5.15;;;;;;;20.03;100.00;101104.06;5258817;28;20107;-78
2022/08/04 02:35:15;;;;;;;9.30;6.22;;;;;;;20.05;100.00;101119.09;5257848;28;20569;-79
2022/08/04 02:37:47;;;;;;;5.57;5.10;;;;;;;20.02;100.00;101113.44;5259431;28;20035;-79
2022/08/04 02:40:20;;;;;;;9.23;6.63;;;;;;;19.99;100.00;101112.13;5257652;28;20021;-79
2022/08/04 02:42:52;;;;;;;6.70;6.25;;;;;;;20.00;100.00;101116.47;5259190;28;20514;-79
2022/08/04 02:45:24;;;;;;;6.45;5.38;;;;;;;19.84;100.00;101098.81;5258131;28;20024;-78
2022/08/04 02:47:59;;;;;;;6.47;5.75;;;;;;;19.88;100.00;101105.28;5259322;28;20044;-79
2022/08/04 02:50:34;;;;;;;9.38;7.10;;;;;;;19.82;100.00;101104.59;5258785;28;20107;-78
2022/08/04 02:53:07;;;;;;;13.73;5.75;;;;;;;19.81;100.00;101107.66;5240972;28;20016;-79
2022/08/04 02:55:40;;;;;;;6.75;5.75;;;;;;;19.71;100.00;101094.19;5240245;28;20436;-78
2022/08/04 02:58:14;;;;;;;10.77;5.88;;;;;;;19.76;100.00;101105.84;5258934;28;20024;-79
2022/08/04 03:00:44;;;;;;;11.82;6.50;;;;;;;19.71;100.00;101097.75;5258904;28;20025;-78
2022/08/04 03:03:18;;;;;;;7.88;5.20;;;;;;;19.76;100.00;101102.28;5258407;28;20481;-79
2022/08/04 03:05:58;;;;;;;6.82;6.15;;;;;;;19.76;100.00;101096.81;5258002;28;20040;-78
2022/08/04 03:08:51;;;;;;;6.82;6.35;;;;;;;19.77;100.00;101101.97;5259488;28;20024;-78
2022/08/04 03:11:21;;;;;;;6.40;5.80;;;;;;;19.76;100.00;101105.03;5253223;28;20116;-79
2022/08/04 03:14:29;;;;;;;6.70;6.05;;;;;;;19.71;100.00;101103.22;5240058;28;20048;-79
2022/08/04 03:17:15;;;;;;;6.97;6.35;;;;;;;19.70;100.00;101087.91;5240449;28;20044;-78
2022/08/04 03:20:17;;;;;;;6.55;5.97;;;;;;;19.67;100.00;101088.53;5259278;28;20055;-78
2022/08/04 03:22:58;;;;;;;8.90;5.88;;;;;;;19.69;100.00;101085.47;5259502;28;20052;-77
2022/08/04 03:25:34;;;;;;;5.25;4.82;;;;;;;19.68;100.00;101083.84;5259561;28;20081;-79
2022/08/04 03:28:26;;;;;;;7.28;6.68;;;;;;;19.64;100.00;101080.09;5257843;28;20364;-79
2022/08/04 03:31:06;;;;;;;6.18;5.88;;;;;;;19.68;100.00;101083.84;5239821;28;20090;-79
2022/08/04 03:33:55;;;;;;;6.88;5.65;;;;;;;19.67;100.00;101074.81;5256794;28;20020;-79
2022/08/04 03:36:54;;;;;;;6.50;5.90;;;;;;;19.59;100.00;101083.81;5257037;28;20085;-79
2022/08/04 03:40:01;;;;;;;6.55;5.95;;;;;;;19.54;100.00;101078.44;5238334;28;20047;-78
2022/08/04 03:42:57;;;;;;;7.13;6.15;;;;;;;19.43;100.00;101083.31;5257887;28;20039;-79
2022/08/04 03:45:41;;;;;;;6.20;5.60;;;;;;;19.37;100.00;101084.53;5250785;28;20040;-79
2022/08/04 03:48:38;;;;;;;11.43;6.25;;;;;;;19.35;100.00;101089.53;5240882;28;20482;-80
2022/08/04 03:54:38;;;;;;;6.80;5.82;;;;;;;19.32;100.00;101089.34;5249087;28;20086;-78
2022/08/04 03:57:09;;;;;;;4.80;4.45;;;;;;;19.31;100.00;101095.94;5249111;28;20078;-80
2022/08/04 03:59:43;;;;;;;12.00;5.28;;;;;;;19.28;100.00;101100.13;5249169;28;20028;-78
2022/08/04 04:03:00;;;;;;;6.68;6.07;;;;;;;19.23;100.00;101094.75;5248864;28;20035;-78
2022/08/04 04:05:52;;;;;;;6.53;5.93;;;;;;;19.28;100.00;101097.38;5210139;28;20037;-78
2022/08/04 04:08:34;;;;;;;8.40;7.35;;;;;;;19.36;100.00;101109.50;5249007;28;20417;-78
2022/08/04 04:11:19;;;;;;;11.05;7.82;;;;;;;19.41;100.00;101112.13;5248828;28;20432;-78
2022/08/04 04:14:08;;;;;;;7.15;6.55;;;;;;;19.41;100.00;101123.91;5230944;28;20038;-78
2022/08/04 04:17:04;;;;;;;13.10;7.05;;;;;;;19.41;100.00;101110.19;5230916;28;20028;-78
2022/08/04 04:19:51;;;;;;;9.07;8.18;;;;;;;19.42;100.00;101111.00;5248830;28;20055;-79
2022/08/04 04:22:43;;;;;;;7.22;6.82;;;;;;;19.46;100.00;101112.81;5250433;28;20107;-76
2022/08/04 04:25:25;;;;;;;7.50;6.85;;;;;;;19.52;100.00;101108.88;5248169;28;20474;-78
2022/08/04 04:28:37;;;;;;;10.38;8.25;;;;;;;19.58;100.00;101106.03;5250469;28;20031;-80
2022/08/04 04:31:26;;;;;;;7.70;7.00;;;;;;;19.65;100.00;101117.34;5230310;28;20047;-78
2022/08/04 04:34:23;;;;;;;7.35;6.70;;;;;;;19.71;100.00;101110.63;5248377;28;20111;-77
2022/08/04 04:37:03;;;;;;;8.88;8.18;;;;;;;19.76;100.00;101113.25;5231230;28;20035;-78
2022/08/04 04:39:47;;;;;;;8.20;7.35;;;;;;;19.82;100.00;101112.00;5231006;28;20032;-81
2022/08/04 04:42:20;;;;;;;7.90;7.35;;;;;;;19.87;100.00;101109.16;5248646;28;20051;-81
2022/08/04 04:44:59;;;;;;;9.15;8.15;;;;;;;19.90;100.00;101111.28;5248008;28;20603;-77
2022/08/04 04:47:53;;;;;;;7.43;6.97;;;;;;;19.95;100.00;101124.81;5231318;28;20403;-81
2022/08/04 04:50:50;;;;;;;8.88;6.88;;;;;;;20.00;100.00;101119.22;5251270;28;20025;-82
2022/08/04 04:53:27;;;;;;;8.18;7.28;;;;;;;20.05;100.00;101116.34;5252903;28;20070;-81
2022/08/04 04:56:09;;;;;;;7.32;6.68;;;;;;;20.12;100.00;101104.94;5254958;28;20516;-77
2022/08/04 04:58:41;;;;;;;19.65;8.27;;;;;;;20.08;100.00;101098.47;5230610;28;20039;-78
2022/08/04 05:01:33;;;;;;;9.50;7.90;;;;;;;20.23;100.00;101101.59;5248418;28;20025;-79
2022/08/04 05:04:25;;;;;;;8.27;6.47;;;;;;;20.35;100.00;101100.22;5253325;28;20025;-79
2022/08/04 05:07:19;;;;;;;6.82;6.07;;;;;;;20.44;100.00;101112.09;5259408;28;20031;-80
2022/08/04 05:09:59;;;;;;;8.55;7.68;;;;;;;20.54;100.00;101122.75;5233314;28;20024;-79
2022/08/04 05:12:50;;;;;;;6.97;6.57;;;;;;;20.64;100.00;101117.00;5233627;28;20063;-80
2022/08/04 05:15:27;;;;;;;6.05;5.65;;;;;;;20.57;100.00;101078.22;5272208;28;20034;-79
2022/08/04 05:18:01;;;;;;;6.60;6.10;;;;;;;20.81;100.00;101106.06;5278207;28;20016;-80
2022/08/04 05:20:39;;;;;;;6.90;6.40;;;;;;;20.92;100.00;101122.25;5260275;28;20025;-79
2022/08/04 05:23:17;;;;;;;8.55;7.88;;;;;;;20.89;100.00;101105.28;5278237;28;20505;-79
2022/08/04 05:25:58;;;;;;;7.05;6.55;;;;;;;21.00;100.00;101116.78;5260843;28;20024;-79
2022/08/04 05:28:31;;;;;;;9.25;8.45;;;;;;;21.03;100.00;101126.31;5260652;28;20028;-79
2022/08/04 05:31:12;;;;;;;7.47;6.78;;;;;;;21.00;100.00;101118.72;5260137;28;20041;-80
2022/08/04 05:33:54;;;;;;;7.22;6.60;;;;;;;20.94;100.00;101109.00;5260476;28;20028;-80
2022/08/04 05:36:57;;;;;;;7.93;6.93;;;;;;;21.09;100.00;101128.56;5278595;28;20032;-80
2022/08/04 05:39:33;;;;;;;5.00;4.63;;;;;;;21.17;100.00;101129.72;5246817;28;20070;-79
2022/08/04 05:42:05;;;;;;;10.07;6.25;;;;;;;21.14;100.00;101124.88;5278507;28;20081;-78
2022/08/04 05:44:37;;;;;;;7.40;6.90;;;;;;;21.13;100.00;101117.75;5276823;28;20023;-81
2022/08/04 05:47:11;;;;;;;8.07;7.32;;;;;;;21.20;100.00;101118.94;5261867;28;20059;-80
2022/08/04 05:49:42;;;;;;;7.03;6.53;;;;;;;21.26;100.00;101129.78;5262594;28;20023;-83
2022/08/04 05:52:14;;;;;;;13.80;8.98;;;;;;;21.36;100.00;101141.28;5263899;28;20041;-82
2022/08/04 05:54:45;;;;;;;7.57;5.82;;;;;;;21.45;100.00;101142.06;5285357;28;20054;-80
2022/08/04 05:57:16;;;;;;;12.57;6.80;;;;;;;21.52;100.00;101142.41;5282529;28;20028;-83
2022/08/04 05:59:49;;;;;;;9.55;5.75;;;;;;;21.70;100.00;101148.69;5265630;28;20027;-82
2022/08/04 06:02:22;;;;;;;7.07;6.45;;;;;;;21.79;100.00;101151.47;5274449;28;20051;-86
2022/08/04 06:04:55;;;;;;;7.45;6.97;;;;;;;21.78;100.00;101131.41;5293299;28;20000;-84
2022/08/04 06:07:26;;;;;;;19.77;7.50;;;;;;;22.03;100.00;101145.47;5285811;28;20030;-81
2022/08/04 06:09:56;;;;;;;9.15;6.72;;;;;;;22.13;100.00;101151.44;5278571;28;20072;-83
2022/08/04 06:12:36;;;;;;;9.25;6.30;;;;;;;22.17;100.00;101152.41;5284432;28;20050;-81
2022/08/04 06:15:12;;;;;;;6.38;5.85;;;;;;;21.96;100.00;101118.44;5280695;28;20024;-83
2022/08/04 06:17:57;;;;;;;12.00;6.38;;;;;;;22.21;100.00;101158.09;5282744;28;20028;-83
2022/08/04 06:20:35;;;;;;;6.22;5.82;;;;;;;22.32;100.00;101139.25;5260336;28;20045;-83
2022/08/04 06:23:09;;;;;;;4.85;4.45;;;;;;;22.37;100.00;101148.16;5279770;28;20027;-80
2022/08/04 06:25:49;;;;;;;10.35;4.55;;;;;;;22.38;100.00;101126.94;5262264;28;20489;-84
2022/08/04 06:28:21;;;;;;;7.43;4.95;;;;;;;22.55;100.00;101155.19;5275548;28;20140;-84
2022/08/04 06:30:53;;;;;;;13.18;5.57;;;;;;;22.49;100.00;101134.53;5260465;28;20035;-85
2022/08/04 06:33:32;;;;;;;5.35;5.05;;;;;;;22.50;100.00;101140.84;5260190;28;20027;-83
2022/08/04 06:36:06;;;;;;;4.53;4.20;;;;;;;22.52;100.00;101146.81;5259558;28;20059;-84
2022/08/04 06:38:36;;;;;;;5.88;4.20;;;;;;;22.69;100.00;101159.69;5274538;28;20024;-85
2022/08/04 06:41:08;;;;;;;3.83;3.50;;;;;;;22.82;100.00;101172.44;5256269;28;20030;-83
2022/08/04 06:43:39;;;;;;;4.93;4.63;;;;;;;22.78;100.00;101150.31;5255775;28;20436;-84
2022/08/04 06:46:10;;;;;;;9.80;4.28;;;;;;;22.92;100.00;101150.06;5274520;28;20099;-84
2022/08/04 06:48:42;;;;;;;4.13;3.85;;;;;;;23.19;100.00;101173.56;5275425;28;20020;-83
2022/08/04 06:51:14;;;;;;;3.80;3.60;;;;;;;23.21;100.00;101163.03;5278307;28;20047;-83
2022/08/04 06:53:45;;;;;;;3.88;2.47;;;;;;;23.42;100.00;101176.81;5278355;28;20420;-84
2022/08/04 06:56:17;;;;;;;9.45;4.93;;;;;;;23.44;100.00;101158.00;5279169;28;20031;-84
2022/08/04 06:58:52;;;;;;;4.03;3.65;;;;;;;23.68;100.00;101177.47;5282748;28;20080;-82
2022/08/04 07:01:25;;;;;;;6.88;4.32;;;;;;;23.85;100.00;101193.06;5277495;28;20028;-84
2022/08/04 07:03:56;;;;;;;4.38;3.42;;;;;;;23.86;100.00;101191.94;5260138;28;20425;-84
2022/08/04 07:06:26;;;;;;;3.63;3.42;;;;;;;23.81;100.00;101167.31;5278476;28;20027;-84
2022/08/04 07:08:58;;;;;;;8.38;3.33;;;;;;;24.02;100.00;101154.28;5260975;28;20020;-84
2022/08/04 07:11:31;;;;;;;3.97;2.47;;;;;;;24.25;100.00;101162.22;5278710;28;20028;-83
2022/08/04 07:14:03;;;;;;;5.50;2.97;;;;;;;24.57;100.00;101181.47;5260588;28;20111;-85
2022/08/04 07:16:33;;;;;;;7.78;4.00;;;;;;;24.77;100.00;101177.03;5279254;28;20030;-84
2022/08/04 07:19:04;;;;;;;5.45;3.00;;;;;;;24.91;100.00;101173.91;5276807;28;20020;-85
2022/08/04 07:21:35;;;;;;;11.52;4.78;;;;;;;24.84;100.00;101148.81;5277248;28;20016;-84
2022/08/04 07:24:06;;;;;;;11.07;3.58;;;;;;;25.12;100.00;101185.69;5258447;28;20555;-87
2022/08/04 07:26:37;;;;;;;4.35;3.88;;;;;;;24.87;100.00;101161.94;5260144;28;20028;-85
2022/08/04 07:29:10;;;;;;;2.80;2.55;;;;;;;25.06;100.00;101180.75;5277950;28;20016;-85
2022/08/04 07:31:41;;;;;;;4.53;3.58;;;;;;;25.14;100.00;101161.25;5277595;28;20516;-85
2022/08/04 07:34:12;;;;;;;6.28;3.22;;;;;;;25.34;100.00;101165.06;5277511;28;20056;-83
2022/08/04 07:36:42;;;;;;;4.88;3.03;;;;;;;25.46;100.00;101151.19;5278323;28;20085;-80
2022/08/04 07:39:13;;;;;;;2.67;2.42;;;;;;;25.96;100.00;101166.50;5278390;28;20405;-83
2022/08/04 07:41:44;;;;;;;3.63;2.38;;;;;;;26.59;100.00;101183.25;5275034;28;20031;-79
2022/08/04 07:44:15;;;;;;;2.60;2.40;;;;;;;26.81;100.00;101187.38;5270272;28;20024;-78
2022/08/04 07:46:45;;;;;;;2.35;2.17;;;;;;;26.77;100.00;101190.06;5257456;28;20028;-81
2022/08/04 07:49:16;;;;;;;3.95;2.33;;;;;;;26.62;100.00;101207.47;5252881;28;20025;-78
2022/08/04 07:51:48;;;;;;;3.53;2.53;;;;;;;26.50;100.00;101196.47;5235776;28;20031;-79
2022/08/04 07:54:19;;;;;;;1.80;1.70;;;;;;;26.64;100.00;101199.59;5253809;28;20025;-79
2022/08/04 07:56:50;;;;;;;8.15;2.83;;;;;;;26.61;100.00;101189.22;5252221;28;20074;-81
2022/08/04 07:59:21;;;;;;;3.88;3.28;;;;;;;26.89;100.00;101195.50;5251802;28;20020;-77
2022/08/04 08:01:53;;;;;;;3.15;2.90;;;;;;;26.96;100.00;101194.09;5274457;22;20031;-65
2022/08/04 08:04:24;;;;;;;10.18;3.50;;;;;;;26.79;100.00;101201.59;5232804;28;20074;-63
2022/08/04 08:06:57;;;;;;;2.65;2.10;;;;;;;26.86;100.00;101207.28;5233107;28;20023;-66
2022/08/04 08:09:32;;;;;;;3.03;2.83;;;;;;;26.75;100.00;101211.78;5268130;28;20020;-64
2022/08/04 08:12:04;;;;;;;4.82;2.30;;;;;;;26.81;100.00;101215.91;5249838;28;20027;-62
2022/08/04 08:14:35;;;;;;;1.98;1.80;;;;;;;27.02;100.00;101215.63;5267959;28;20028;-62
2022/08/04 08:17:05;;;;;;;6.00;4.32;;;;;;;27.13;100.00;101221.47;5267957;28;20107;-62
2022/08/04 08:19:36;;;;;;;6.15;4.13;;;;;;;27.37;100.00;101224.00;5267977;28;20384;-63
2022/08/04 08:22:06;;;;;;;6.07;2.60;;;;;;;27.75;100.00;101231.59;5268224;28;20355;-62
2022/08/04 08:24:37;;;;;;;7.38;3.20;;;;;;;27.88;100.00;101227.53;5249098;28;20395;-63
2022/08/04 08:27:08;;;;;;;13.88;6.65;;;;;;;27.94;100.00;101228.06;5249468;28;20023;-61
2022/08/04 08:29:40;;;;;;;7.78;4.35;;;;;;;28.09;100.00;101234.69;5268058;28;20054;-62
2022/08/04 08:32:14;;;;;;;5.65;3.25;;;;;;;27.91;100.00;101234.34;5267843;28;20024;-62
2022/08/04 08:34:45;;;;;;;3.95;2.38;;;;;;;27.73;100.00;101239.50;5248929;28;20032;-62
2022/08/04 08:37:25;;;;;;;6.47;2.40;;;;;;;27.58;100.00;101243.13;5249621;28;20472;-63
2022/08/04 08:40:09;;;;;;;9.55;3.00;;;;;;;27.39;100.00;101238.31;5268396;28;20115;-64
2022/08/04 08:43:04;;;;;;;6.90;3.90;;;;;;;27.40;100.00;101241.91;5267921;28;20032;-65
2022/08/04 08:46:12;;;;;;;4.35;2.83;;;;;;;27.36;100.00;101247.34;5267164;28;20506;-63
2022/08/04 08:49:10;;;;;;;3.88;2.65;;;;;;;27.22;100.00;101250.59;5262846;28;20035;-64
2022/08/04 08:52:17;;;;;;;4.90;3.08;;;;;;;27.22;100.00;101266.41;5267408;28;20126;-63
2022/08/04 08:55:06;;;;;;;6.13;4.45;;;;;;;26.99;100.00;101280.09;5266942;28;20115;-64
2022/08/04 08:58:26;;;;;;;3.00;2.65;;;;;;;26.85;100.00;101288.03;5249098;28;20077;-62
2022/08/04 09:01:26;;;;;;;8.20;2.40;;;;;;;26.61;100.00;101282.63;5267604;28;20023;-65
2022/08/04 09:04:34;;;;;;;2.08;1.98;;;;;;;26.57;100.00;101288.84;5267411;28;20039;-65
2022/08/04 09:07:25;;;;;;;4.90;3.67;;;;;;;26.29;100.00;101292.75;5267382;28;20442;-66
2022/08/04 09:10:14;;;;;;;3.05;2.53;;;;;;;26.16;100.00;101287.28;5267209;28;20027;-65
2022/08/04 09:13:12;;;;;;;9.13;2.65;;;;;;;25.88;100.00;101272.59;5266782;28;20020;-64
2022/08/04 09:15:53;;;;;;;3.22;2.95;;;;;;;25.64;100.00;101253.28;5266810;28;20058;-63
2022/08/04 09:18:41;;;;;;;4.45;3.05;;;;;;;25.30;100.00;101249.03;5248844;28;20023;-64
2022/08/04 09:21:28;;;;;;;3.03;2.72;;;;;;;25.21;100.00;101260.19;5267010;28;20027;-64
2022/08/04 09:24:08;;;;;;;3.00;2.78;;;;;;;25.13;100.00;101245.34;5266386;28;20396;-63
2022/08/04 09:26:54;;;;;;;12.63;3.95;;;;;;;24.98;100.00;101240.50;5266645;28;20089;-63
2022/08/04 09:29:33;;;;;;;2.33;2.20;;;;;;;25.04;100.00;101318.47;5266646;28;20016;-63
2022/08/04 09:32:22;;;;;;;3.70;3.50;;;;;;;24.88;100.00;101316.31;5266740;28;20040;-63
2022/08/04 09:35:18;;;;;;;6.13;3.20;;;;;;;24.83;100.00;101315.75;5248315;28;20059;-63
2022/08/04 09:38:06;;;;;;;9.10;4.28;;;;;;;24.64;100.00;101310.72;5266421;28;20066;-62
2022/08/04 09:40:48;;;;;;;4.13;3.25;;;;;;;24.47;100.00;101332.97;5266873;28;20039;-62
2022/08/04 09:43:48;;;;;;;3.88;3.53;;;;;;;24.36;100.00;101342.81;5266879;28;20031;-65
2022/08/04 09:46:31;;;;;;;4.65;3.53;;;;;;;24.04;100.00;101328.56;5265318;28;20086;-64
2022/08/04 09:49:13;;;;;;;5.13;4.78;;;;;;;23.70;100.00;101307.53;5266730;28;20016;-65
2022/08/04 09:51:50;;;;;;;8.45;4.60;;;;;;;23.53;100.00;101325.00;5267333;28;20630;-61
2022/08/04 09:54:38;;;;;;;5.38;4.85;;;;;;;23.47;100.00;101315.25;5266688;28;20475;-62
2022/08/04 09:57:35;;;;;;;4.55;4.07;;;;;;;23.31;100.00;101283.91;5266854;28;20072;-63
2022/08/04 10:00:12;;;;;;;7.25;3.85;;;;;;;23.16;100.00;101265.97;5264322;28;20020;-64
2022/08/04 10:02:49;;;;;;;6.10;5.57;;;;;;;23.17;100.00;101266.75;5261782;28;20036;-63
2022/08/04 10:05:42;;;;;;;6.47;5.68;;;;;;;23.32;100.00;101284.72;5265956;28;20048;-63
2022/08/04 10:08:50;;;;;;;10.35;4.10;;;;;;;23.34;100.00;101266.69;5248380;28;20024;-64
2022/08/04 10:12:04;;;;;;;3.80;3.60;;;;;;;23.46;100.00;101286.06;5266353;28;20024;-63
2022/08/04 10:14:51;;;;;;;5.55;3.13;;;;;;;23.65;100.00;101298.66;5210440;28;20233;-63
2022/08/04 10:17:24;;;;;;;3.88;3.45;;;;;;;23.60;100.00;101320.91;5248204;28;20059;-63
2022/08/04 10:20:06;;;;;;;8.05;4.45;;;;;;;23.73;100.00;101326.19;5266341;28;20024;-64
2022/08/04 10:22:42;;;;;;;5.40;3.63;;;;;;;23.72;100.00;101321.00;5266261;28;20036;-63
2022/08/04 10:25:31;;;;;;;3.78;3.47;;;;;;;23.55;100.00;101300.66;5270006;28;20031;-63
2022/08/04 10:28:08;;;;;;;11.02;3.80;;;;;;;23.59;100.00;101305.50;5270229;28;20476;-64
2022/08/04 10:30:46;;;;;;;4.10;3.40;;;;;;;23.75;100.00;101304.59;5270271;28;20020;-63
2022/08/04 10:33:41;;;;;;;7.80;3.72;;;;;;;23.87;100.00;101306.63;5270208;28;20070;-64
2022/08/04 10:36:18;;;;;;;4.97;4.57;;;;;;;24.01;100.00;101298.09;5270236;28;20028;-65
2022/08/04 10:39:08;;;;;;;4.80;3.72;;;;;;;24.12;100.00;101286.31;5270151;28;20028;-65
2022/08/04 10:41:51;;;;;;;4.35;3.85;;;;;;;24.09;100.00;101292.50;5270190;28;20024;-64
2022/08/04 10:44:45;;;;;;;5.00;4.55;;;;;;;24.07;100.00;101267.19;5269432;28;20023;-64
2022/08/04 10:47:21;;;;;;;11.02;4.40;;;;;;;24.36;100.00;101279.31;5269838;28;20031;-65
2022/08/04 10:49:58;;;;;;;5.03;3.55;;;;;;;24.55;100.00;101283.19;5251446;28;20472;-64
2022/08/04 10:52:53;;;;;;;7.60;4.57;;;;;;;24.62;100.00;101279.06;5269725;28;20055;-64
2022/08/04 10:55:37;;;;;;;5.35;4.95;;;;;;;24.43;100.00;101277.63;5269248;28;20032;-64
2022/08/04 10:58:15;;;;;;;5.40;4.38;;;;;;;24.70;100.00;101278.97;5251265;28;20508;-64
2022/08/04 11:00:45;;;;;;;4.70;3.92;;;;;;;25.32;100.00;101282.66;5269909;28;20247;-64
2022/08/04 11:03:22;;;;;;;5.15;4.85;;;;;;;25.34;100.00;101278.41;5269470;28;20028;-64
2022/08/04 11:05:55;;;;;;;6.38;5.88;;;;;;;25.61;100.00;101292.69;5269690;28;20028;-63
2022/08/04 11:08:32;;;;;;;5.60;3.42;;;;;;;25.53;100.00;101272.28;5269090;28;20031;-63
2022/08/04 11:11:30;;;;;;;7.82;4.40;;;;;;;25.60;100.00;101291.06;5269299;28;20031;-63
2022/08/04 11:14:15;;;;;;;3.88;3.58;;;;;;;25.89;100.00;101280.56;5250812;28;20028;-63
2022/08/04 11:17:08;;;;;;;3.60;3.30;;;;;;;26.40;100.00;101277.31;5269204;28;20024;-64
2022/08/04 11:20:07;;;;;;;3.80;3.53;;;;;;;26.72;100.00;101278.19;5269035;28;20404;-63
2022/08/04 11:22:43;;;;;;;5.13;4.05;;;;;;;27.14;100.00;101284.06;5269186;28;20407;-63
2022/08/04 11:25:21;;;;;;;4.32;4.03;;;;;;;27.57;100.00;101288.66;5268521;28;20099;-63
2022/08/04 11:28:09;;;;;;;3.97;3.75;;;;;;;27.72;100.00;101292.59;5269202;28;20476;-63
2022/08/04 11:30:49;;;;;;;6.68;3.13;;;;;;;28.07;100.00;101298.91;5269054;28;20024;-64
2022/08/04 11:33:28;;;;;;;5.70;3.45;;;;;;;28.31;100.00;101297.03;5268227;28;20056;-64
2022/08/04 11:36:01;;;;;;;;;;;;;;;28.24;100.00;101297.72;5268674;28;20066;-64
2022/08/04 11:38:47;;;;;;;21.45;8.50;;;;;;;28.40;100.00;101317.09;5268672;28;19912;-64
2022/08/04 11:41:46;;;;;;;17.23;4.88;;;;;;;28.16;100.00;101274.53;5268667;28;20400;-63
2022/08/04 11:44:41;;;;;;;11.70;5.78;;;;;;;28.47;100.00;101306.13;5265477;28;20516;-64
2022/08/04 11:47:25;;;;;;;13.82;4.80;;;;;;;28.30;100.00;101312.13;5268833;28;20115;-64
2022/08/04 11:50:13;;;;;;;4.93;3.72;;;;;;;28.39;100.00;101316.28;5250238;28;20039;-64
2022/08/04 11:52:44;;;;;;;30.55;9.77;;;;;;;28.50;100.00;101316.50;5268893;28;20024;-63
2022/08/04 11:55:18;;;;;;;5.93;4.13;;;;;;;28.32;100.00;101316.13;5249930;28;20051;-63
2022/08/04 11:57:49;;;;;;;3.65;3.15;;;;;;;28.02;100.00;101335.28;5250514;28;20024;-63
2022/08/04 12:00:21;;;;;;;17.77;5.22;;;;;;;27.90;100.00;101329.88;5266276;28;20020;-63
2022/08/04 12:02:57;;;;;;;3.15;2.95;;;;;;;27.98;100.00;101334.44;5248190;28;20032;-64
2022/08/04 12:05:32;;;;;;;4.10;3.80;;;;;;;27.85;100.00;101327.38;5267390;28;20028;-66
2022/08/04 12:08:25;;;;;;;5.70;4.35;;;;;;;27.70;100.00;101325.47;5249589;28;20020;-64
2022/08/04 12:11:20;;;;;;;5.40;3.10;;;;;;;27.36;100.00;101330.56;5267840;28;20024;-64
2022/08/04 12:14:13;;;;;;;10.10;4.30;;;;;;;27.20;100.00;101333.31;5267384;28;20028;-65
2022/08/04 12:17:01;;;;;;;3.03;2.85;;;;;;;27.28;100.00;101342.63;5268025;28;20419;-65
2022/08/04 12:19:38;;;;;;;3.38;2.97;;;;;;;27.48;100.00;101337.97;5268377;28;20020;-65
2022/08/04 12:22:14;;;;;;;3.40;3.13;;;;;;;27.91;100.00;101337.03;5267856;28;20032;-65
2022/08/04 12:24:51;;;;;;;6.93;4.82;;;;;;;28.22;100.00;101325.88;5267519;28;20454;-65